createdAt,value
2023-05-14T00:02:02.450Z,97298.19
2023-05-14T00:05:10.441Z,97287.91
2023-05-14T00:11:36.581Z,97294.47
2023-05-14T00:14:40.710Z,97288.69
2023-05-14T00:17:44.471Z,97298.50
2023-05-14T00:20:48.396Z,97287.09
2023-05-14T00:23:52.903Z,97283.47
2023-05-14T00:26:57.117Z,97277.41
2023-05-14T00:30:07.167Z,97280.28
2023-05-14T00:33:13.407Z,97276.19
2023-05-14T00:36:39.878Z,97264.16
2023-05-14T00:39:42.172Z,97264.94
2023-05-14T00:42:47.313Z,97264.88
2023-05-14T00:45:51.460Z,97263.78
2023-05-14T00:48:55.403Z,97259.25
2023-05-14T00:51:59.612Z,97254.84
2023-05-14T00:55:03.888Z,97248.78
2023-05-14T00:58:12.346Z,97242.13
2023-05-14T01:01:26.925Z,97242.16
2023-05-14T01:04:33.618Z,97236.66
2023-05-14T01:07:39.174Z,97235.25
2023-05-14T01:10:44.753Z,97242.13
2023-05-14T01:13:53.720Z,97241.28
2023-05-14T01:16:58.274Z,97234.44
2023-05-14T01:20:06.473Z,97237.28
2023-05-14T01:23:10.783Z,97234.34
2023-05-14T01:26:16.464Z,97230.69
2023-05-14T01:29:26.222Z,97222.03
2023-05-14T01:32:30.273Z,97238.06
2023-05-14T01:35:37.076Z,97231.06
2023-05-14T01:38:42.249Z,97240.16
2023-05-14T01:41:46.348Z,97236.31
2023-05-14T01:44:50.272Z,97239.59
2023-05-14T01:47:54.989Z,97232.78
2023-05-14T01:51:02.373Z,97232.63
2023-05-14T01:54:13.157Z,97229.78
2023-05-14T01:57:21.884Z,97227.78
2023-05-14T02:00:29.055Z,97232.19
2023-05-14T02:03:34.797Z,97218.97
2023-05-14T02:06:38.656Z,97228.81
2023-05-14T02:09:49.238Z,97229.53
2023-05-14T02:13:16.251Z,97229.31
2023-05-14T02:16:18.703Z,97227.56
2023-05-14T02:19:26.430Z,97231.16
2023-05-14T02:22:30.763Z,97220.72
2023-05-14T02:25:41.266Z,97220.91
2023-05-14T02:28:45.626Z,97230.31
2023-05-14T02:32:37.085Z,97230.31
2023-05-14T02:35:17.106Z,97228.81
2023-05-14T02:38:26.278Z,97223.78
2023-05-14T02:41:31.785Z,97228.13
2023-05-14T02:44:39.647Z,97226.72
2023-05-14T02:47:46.280Z,97223.97
2023-05-14T02:54:16.082Z,97224.41
2023-05-14T02:57:41.116Z,97218.84
2023-05-14T03:01:02.321Z,97213.75
2023-05-14T03:04:08.294Z,97209.50
2023-05-14T03:07:14.891Z,97215.91
2023-05-14T03:10:41.709Z,97209.22
2023-05-14T03:13:54.439Z,97202.63
2023-05-14T03:16:58.640Z,97209.16
2023-05-14T03:20:07.123Z,97207.47
2023-05-14T03:23:15.642Z,97212.44
2023-05-14T03:27:07.020Z,97214.66
2023-05-14T03:29:44.559Z,97211.31
2023-05-14T03:32:49.944Z,97215.28
2023-05-14T03:39:17.132Z,97209.13
2023-05-14T03:42:27.428Z,97207.41
2023-05-14T03:45:31.163Z,97201.84
2023-05-14T03:48:39.472Z,97200.97
2023-05-14T03:51:43.821Z,97204.91
2023-05-14T03:54:48.085Z,97202.69
2023-05-14T03:57:52.273Z,97208.47
2023-05-14T04:00:56.334Z,97211.53
2023-05-14T04:04:00.069Z,97208.25
2023-05-14T04:07:03.754Z,97207.31
2023-05-14T04:10:07.672Z,97211.34
2023-05-14T04:13:11.453Z,97210.69
2023-05-14T04:16:15.465Z,97197.81
2023-05-14T04:19:19.426Z,97210.50
2023-05-14T04:22:23.622Z,97204.78
2023-05-14T04:25:30.546Z,97205.06
2023-05-14T04:28:34.735Z,97208.34
2023-05-14T04:31:39.842Z,97213.22
2023-05-14T04:34:43.886Z,97206.78
2023-05-14T04:37:47.658Z,97212.22
2023-05-14T04:40:52.092Z,97213.94
2023-05-14T04:43:56.064Z,97203.72
2023-05-14T04:47:00.283Z,97215.84
2023-05-14T04:50:03.862Z,97218.25
2023-05-14T04:53:08.097Z,97220.13
2023-05-14T04:56:12.213Z,97219.03
2023-05-14T04:59:15.928Z,97217.97
2023-05-14T05:02:20.935Z,97216.25
2023-05-14T05:05:25.124Z,97212.19
2023-05-14T05:08:29.151Z,97221.34
2023-05-14T05:11:33.351Z,97218.28
2023-05-14T05:14:37.050Z,97224.38
2023-05-14T05:17:41.101Z,97221.69
2023-05-14T05:20:45.005Z,97233.09
2023-05-14T05:23:49.082Z,97227.56
2023-05-14T05:26:53.258Z,97233.38
2023-05-14T05:29:57.076Z,97223.66
2023-05-14T05:33:01.121Z,97230.81
2023-05-14T05:36:05.259Z,97229.91
2023-05-14T05:39:09.317Z,97228.66
2023-05-14T05:42:13.077Z,97232.88
2023-05-14T05:45:16.822Z,97230.00
2023-05-14T05:48:20.896Z,97229.03
2023-05-14T05:51:24.794Z,97233.16
2023-05-14T05:54:28.848Z,97236.44
2023-05-14T05:57:32.681Z,97241.78
2023-05-14T06:00:36.702Z,97233.09
2023-05-14T06:03:40.580Z,97232.09
2023-05-14T06:06:44.432Z,97240.03
2023-05-14T06:09:48.684Z,97241.34
2023-05-14T06:12:52.647Z,97241.31
2023-05-14T06:15:56.491Z,97244.81
2023-05-14T06:19:00.454Z,97233.66
2023-05-14T06:22:04.746Z,97230.41
2023-05-14T06:25:11.064Z,97239.31
2023-05-14T06:28:22.363Z,97230.25
2023-05-14T06:31:26.512Z,97233.00
2023-05-14T06:34:36.404Z,97237.78
2023-05-14T06:37:40.268Z,97234.34
2023-05-14T06:40:44.379Z,97234.56
2023-05-14T06:43:48.600Z,97242.28
2023-05-14T06:46:53.013Z,97242.09
2023-05-14T06:49:56.908Z,97249.00
2023-05-14T06:53:00.884Z,97250.53
2023-05-14T06:56:04.713Z,97249.13
2023-05-14T06:59:08.900Z,97233.28
2023-05-14T07:02:13.191Z,97248.72
2023-05-14T07:05:19.623Z,97249.00
2023-05-14T07:08:23.771Z,97257.53
2023-05-14T07:11:27.681Z,97252.94
2023-05-14T07:14:31.921Z,97250.88
2023-05-14T07:17:36.074Z,97244.22
2023-05-14T07:20:40.155Z,97239.00
2023-05-14T07:23:44.183Z,97240.84
2023-05-14T07:26:52.502Z,97237.63
2023-05-14T07:30:00.803Z,97238.16
2023-05-14T07:33:07.363Z,97239.75
2023-05-14T07:36:11.223Z,97236.53
2023-05-14T07:39:18.537Z,97234.88
2023-05-14T07:42:35.214Z,97229.72
2023-05-14T07:45:40.996Z,97231.81
2023-05-14T07:48:47.592Z,97234.72
2023-05-14T07:51:52.885Z,97223.63
2023-05-14T07:54:56.603Z,97231.56
2023-05-14T07:58:01.712Z,97221.72
2023-05-14T08:01:05.857Z,97228.41
2023-05-14T08:04:10.929Z,97227.44
2023-05-14T08:07:17.788Z,97228.47
2023-05-14T08:13:44.018Z,97221.56
2023-05-14T08:16:47.964Z,97216.38
2023-05-14T08:19:52.145Z,97205.00
2023-05-14T08:22:57.453Z,97220.72
2023-05-14T08:26:02.846Z,97212.91
2023-05-14T08:29:07.474Z,97213.53
2023-05-14T08:32:22.911Z,97215.63
2023-05-14T08:35:28.441Z,97209.84
2023-05-14T08:38:36.663Z,97203.13
2023-05-14T08:41:41.052Z,97208.22
2023-05-14T08:44:46.320Z,97213.47
2023-05-14T08:47:50.897Z,97202.91
2023-05-14T08:50:55.110Z,97197.22
2023-05-14T08:54:03.019Z,97190.63
2023-05-14T09:00:25.077Z,97183.09
2023-05-14T09:03:30.574Z,97191.06
2023-05-14T09:06:36.538Z,97184.66
2023-05-14T09:09:40.676Z,97185.78
2023-05-14T09:12:44.294Z,97181.91
2023-05-14T09:15:48.409Z,97179.53
2023-05-14T09:18:52.225Z,97172.69
2023-05-14T09:22:00.050Z,97174.28
2023-05-14T09:25:03.990Z,97181.94
2023-05-14T09:28:18.501Z,97171.38
2023-05-14T09:31:22.752Z,97176.09
2023-05-14T09:34:26.647Z,97174.34
2023-05-14T09:37:30.664Z,97170.91
2023-05-14T09:40:34.664Z,97164.72
2023-05-14T09:43:39.797Z,97168.75
2023-05-14T09:46:47.049Z,97167.47
2023-05-14T09:49:54.107Z,97170.53
2023-05-14T09:53:02.844Z,97170.41
2023-05-14T09:56:39.996Z,97164.69
2023-05-14T09:59:32.047Z,97171.88
2023-05-14T10:02:36.082Z,97171.94
2023-05-14T10:05:43.662Z,97165.25
2023-05-14T10:08:47.824Z,97162.97
2023-05-14T10:11:54.311Z,97157.03
2023-05-14T10:14:58.350Z,97155.94
2023-05-14T10:18:02.730Z,97156.72
2023-05-14T10:21:06.709Z,97163.78
2023-05-14T10:24:18.040Z,97163.50
2023-05-14T10:27:22.139Z,97158.41
2023-05-14T10:30:26.250Z,97157.28
2023-05-14T10:33:30.252Z,97149.91
2023-05-14T10:36:34.142Z,97153.56
2023-05-14T10:39:38.102Z,97148.97
2023-05-14T10:42:42.120Z,97151.25
2023-05-14T10:45:49.909Z,97155.75
2023-05-14T10:48:53.867Z,97148.03
2023-05-14T10:51:57.706Z,97139.84
2023-05-14T10:55:03.461Z,97145.41
2023-05-14T10:58:07.749Z,97150.38
2023-05-14T11:01:11.740Z,97145.59
2023-05-14T11:04:15.634Z,97142.66
2023-05-14T11:07:19.605Z,97128.44
2023-05-14T11:10:28.467Z,97128.56
2023-05-14T11:13:32.924Z,97138.31
2023-05-14T11:16:37.051Z,97131.13
2023-05-14T11:19:40.937Z,97121.88
2023-05-14T11:22:44.668Z,97124.00
2023-05-14T11:25:48.801Z,97122.59
2023-05-14T11:28:52.777Z,97115.00
2023-05-14T11:31:56.901Z,97119.28
2023-05-14T11:35:00.534Z,97122.28
2023-05-14T11:38:06.076Z,97114.06
2023-05-14T11:41:10.770Z,97110.94
2023-05-14T11:44:14.892Z,97115.69
2023-05-14T11:47:18.875Z,97108.47
2023-05-14T11:50:23.041Z,97102.22
2023-05-14T11:53:27.428Z,97108.31
2023-05-14T11:56:31.293Z,97112.16
2023-05-14T11:59:35.700Z,97110.25
2023-05-14T12:02:43.506Z,97108.94
2023-05-14T12:05:47.625Z,97098.09
2023-05-14T12:08:51.262Z,97092.00
2023-05-14T12:11:55.251Z,97089.66
2023-05-14T12:14:59.427Z,97092.75
2023-05-14T12:18:03.872Z,97095.41
2023-05-14T12:27:37.454Z,97093.63
2023-05-14T12:30:43.612Z,97099.84
2023-05-14T12:33:47.584Z,97091.69
2023-05-14T12:36:51.461Z,97093.41
2023-05-14T12:39:55.463Z,97097.28
2023-05-14T12:42:59.166Z,97102.56
2023-05-14T12:46:03.147Z,97090.06
2023-05-14T12:49:09.873Z,97080.75
2023-05-14T12:55:26.530Z,97071.59
2023-05-14T12:58:40.773Z,97081.41
2023-05-14T13:01:46.157Z,97078.41
2023-05-14T13:04:53.538Z,97072.94
2023-05-14T13:07:57.441Z,97055.56
2023-05-14T13:11:04.261Z,97062.78
2023-05-14T13:14:08.443Z,97062.09
2023-05-14T13:17:12.442Z,97059.41
2023-05-14T13:20:16.383Z,97048.28
2023-05-14T13:23:20.808Z,97052.09
2023-05-14T13:26:25.710Z,97042.31
2023-05-14T13:29:30.200Z,97037.75
2023-05-14T13:32:35.831Z,97043.28
2023-05-14T13:35:40.158Z,97046.59
2023-05-14T13:38:47.507Z,97062.53
2023-05-14T13:41:53.030Z,97041.50
2023-05-14T13:45:01.282Z,97044.59
2023-05-14T13:48:05.546Z,97042.88
2023-05-14T13:51:10.506Z,97036.78
2023-05-14T13:54:14.458Z,97028.72
2023-05-14T13:57:19.873Z,97032.59
2023-05-14T14:00:24.293Z,97027.25
2023-05-14T14:03:29.831Z,97022.28
2023-05-14T14:06:35.073Z,97034.56
2023-05-14T14:09:38.909Z,97025.44
2023-05-14T14:12:42.918Z,97033.25
2023-05-14T14:15:48.163Z,97034.34
2023-05-14T14:18:53.739Z,97025.25
2023-05-14T14:22:04.918Z,97029.53
2023-05-14T14:25:44.290Z,97030.59
2023-05-14T14:39:44.111Z,97001.91
2023-05-14T14:46:17.151Z,97018.25
2023-05-14T15:01:48.878Z,97001.69
2023-05-14T15:04:55.694Z,96995.06
2023-05-14T15:07:59.705Z,97007.22
2023-05-14T15:11:03.623Z,97003.56
2023-05-14T15:17:37.125Z,97009.25
2023-05-14T15:24:15.801Z,97001.13
2023-05-14T15:27:23.074Z,97020.25
2023-05-14T15:30:30.163Z,97004.75
2023-05-14T15:39:42.659Z,97009.38
2023-05-14T15:42:47.090Z,97019.59
2023-05-14T15:45:50.809Z,97021.13
2023-05-14T15:48:54.709Z,97012.84
2023-05-14T15:51:58.445Z,97016.06
2023-05-14T15:55:02.370Z,97022.78
2023-05-14T15:58:07.987Z,97025.78
2023-05-14T16:01:12.157Z,97022.78
2023-05-14T16:04:16.058Z,97039.44
2023-05-14T16:07:22.063Z,97041.22
2023-05-14T16:21:48.105Z,97024.41
2023-05-14T16:24:52.605Z,97016.44
2023-05-14T16:27:56.749Z,97021.75
2023-05-14T16:31:02.810Z,97024.78
2023-05-14T16:34:07.929Z,97015.38
2023-05-14T16:37:13.169Z,97010.94
2023-05-14T16:40:17.563Z,97025.91
2023-05-14T16:46:50.926Z,97048.19
2023-05-14T16:49:55.122Z,97047.09
2023-05-14T16:52:59.550Z,97051.47
2023-05-14T16:56:03.355Z,97050.63
2023-05-14T16:59:07.389Z,97043.00
2023-05-14T17:02:11.721Z,97045.09
2023-05-14T17:05:15.726Z,97051.28
2023-05-14T17:08:20.942Z,97043.44
2023-05-14T17:11:27.151Z,97051.25
2023-05-14T17:14:31.078Z,97060.84
2023-05-14T17:17:36.715Z,97055.34
2023-05-14T17:20:42.256Z,97064.31
2023-05-14T17:23:46.761Z,97079.28
2023-05-14T17:26:50.973Z,97077.38
2023-05-14T17:29:54.986Z,97078.75
2023-05-14T17:33:02.862Z,97085.00
2023-05-14T17:36:08.117Z,97092.69
2023-05-14T17:39:12.172Z,97078.59
2023-05-14T17:42:17.774Z,97089.50
2023-05-14T17:45:26.581Z,97091.00
2023-05-14T17:48:31.045Z,97083.16
2023-05-14T17:51:36.112Z,97079.72
2023-05-14T17:54:40.255Z,97084.28
2023-05-14T17:57:44.175Z,97082.03
2023-05-14T18:00:48.176Z,97085.50
2023-05-14T18:03:52.238Z,97093.63
2023-05-14T18:06:56.384Z,97096.94
2023-05-14T18:10:00.436Z,97092.38
2023-05-14T18:13:05.966Z,97090.28
2023-05-14T18:16:10.039Z,97100.59
2023-05-14T18:19:14.122Z,97100.44
2023-05-14T18:22:18.139Z,97109.34
2023-05-14T18:25:22.065Z,97111.56
2023-05-14T18:28:26.384Z,97116.28
2023-05-14T18:31:30.302Z,97117.28
2023-05-14T18:34:38.762Z,97126.84
2023-05-14T18:37:42.914Z,97131.59
2023-05-14T18:40:48.070Z,97135.31
2023-05-14T18:43:52.245Z,97132.66
2023-05-14T18:46:58.065Z,97139.56
2023-05-14T18:50:15.354Z,97150.31
2023-05-14T18:53:19.650Z,97143.78
2023-05-14T18:56:26.942Z,97151.97
2023-05-14T18:59:41.284Z,97156.47
2023-05-14T19:02:45.890Z,97148.78
2023-05-14T19:06:13.030Z,97163.31
2023-05-14T19:09:18.525Z,97157.22
2023-05-14T19:12:23.782Z,97163.03
2023-05-14T19:15:28.241Z,97177.53
2023-05-14T19:18:36.979Z,97190.78
2023-05-14T19:24:24.143Z,97206.19
2023-05-14T19:27:28.140Z,97215.19
2023-05-14T19:30:33.357Z,97203.78
2023-05-14T19:33:37.373Z,97210.88
2023-05-14T19:36:41.156Z,97210.88
2023-05-14T19:39:45.081Z,97214.03
2023-05-14T19:42:48.914Z,97221.47
2023-05-14T19:45:53.021Z,97226.59
2023-05-14T19:48:59.182Z,97222.66
2023-05-14T19:52:02.905Z,97229.00
2023-05-14T19:55:15.555Z,97234.75
2023-05-14T19:58:19.304Z,97230.81
2023-05-14T20:01:23.700Z,97230.94
2023-05-14T20:04:31.690Z,97239.03
2023-05-14T20:07:36.006Z,97240.66
2023-05-14T20:10:40.835Z,97248.88
2023-05-14T20:13:44.771Z,97258.88
2023-05-14T20:16:49.013Z,97244.19
2023-05-14T20:19:57.055Z,97249.91
2023-05-14T20:23:01.155Z,97252.69
2023-05-14T20:26:07.185Z,97248.16
2023-05-14T20:29:11.343Z,97241.50
2023-05-14T20:32:15.334Z,97248.16
2023-05-14T20:35:20.251Z,97252.09
2023-05-14T20:38:24.276Z,97241.06
2023-05-14T20:41:28.455Z,97240.53
2023-05-14T20:44:32.837Z,97242.94
2023-05-14T20:47:36.929Z,97243.13
2023-05-14T20:50:40.856Z,97238.63
2023-05-14T20:53:44.852Z,97239.72
2023-05-14T20:56:48.800Z,97242.94
2023-05-14T20:59:53.035Z,97239.69
2023-05-14T21:02:57.245Z,97245.44
2023-05-14T21:06:01.324Z,97231.88
2023-05-14T21:09:05.514Z,97232.84
2023-05-14T21:12:09.755Z,97229.00
2023-05-14T21:15:13.884Z,97230.94
2023-05-14T21:18:17.896Z,97232.41
2023-05-14T21:21:22.116Z,97224.53
2023-05-14T21:24:26.302Z,97227.00
2023-05-14T21:27:30.273Z,97225.53
2023-05-14T21:30:34.278Z,97226.34
2023-05-14T21:33:38.290Z,97225.81
2023-05-14T21:36:42.454Z,97227.66
2023-05-14T21:39:46.609Z,97232.06
2023-05-14T21:42:50.418Z,97230.13
2023-05-14T21:45:54.616Z,97229.91
2023-05-14T21:48:58.687Z,97224.13
2023-05-14T21:52:02.940Z,97219.97
2023-05-14T21:55:07.021Z,97215.97
2023-05-14T21:58:10.746Z,97217.75
2023-05-14T22:01:14.695Z,97216.72
2023-05-14T22:04:18.681Z,97217.09
2023-05-14T22:07:22.490Z,97207.69
2023-05-14T22:10:26.356Z,97206.59
2023-05-14T22:13:29.927Z,97200.59
2023-05-14T22:16:33.892Z,97203.81
2023-05-14T22:19:37.937Z,97203.53
2023-05-14T22:22:41.950Z,97205.34
2023-05-14T22:25:46.155Z,97211.16
2023-05-14T22:28:49.934Z,97214.06
2023-05-14T22:31:54.135Z,97205.25
2023-05-14T22:34:59.805Z,97205.81
2023-05-14T22:38:05.538Z,97206.44
2023-05-14T22:41:09.614Z,97208.19
2023-05-14T22:44:13.245Z,97217.19
2023-05-14T22:47:17.400Z,97220.66
2023-05-14T22:50:21.662Z,97215.41
2023-05-14T22:53:25.615Z,97225.03
2023-05-14T22:56:29.851Z,97227.41
2023-05-14T22:59:34.865Z,97222.72
2023-05-14T23:02:38.938Z,97217.03
2023-05-14T23:05:44.005Z,97218.25
2023-05-14T23:08:48.058Z,97222.75
2023-05-14T23:11:51.987Z,97213.22
2023-05-14T23:14:55.834Z,97207.06
2023-05-14T23:17:59.877Z,97203.53
2023-05-14T23:21:03.950Z,97203.09
2023-05-14T23:24:07.603Z,97195.78
2023-05-14T23:27:11.681Z,97194.75
2023-05-14T23:30:15.519Z,97198.28
2023-05-14T23:33:19.681Z,97199.19
2023-05-14T23:36:23.819Z,97202.75
2023-05-14T23:39:27.820Z,97195.22
2023-05-14T23:42:31.769Z,97199.69
2023-05-14T23:45:35.916Z,97188.59
2023-05-14T23:48:41.170Z,97190.63
2023-05-14T23:51:45.545Z,97190.50
2023-05-14T23:54:49.607Z,97188.19
2023-05-14T23:57:53.323Z,97194.06
